sensor_id;sensor_type;location;lat;lon;timestamp;P1;durP1;ratioP1;P2;durP2;ratioP2
3601;SDS011;1815;50.950;6.920;2023-02-26T00:00:56;2.87;;;1.63;;
3601;SDS011;1815;50.950;6.920;2023-02-26T00:03:21;2.43;;;1.20;;
3601;SDS011;1815;50.950;6.920;2023-02-26T00:05:47;3.17;;;1.13;;
3601;SDS011;1815;50.950;6.920;2023-02-26T00:08:13;3.07;;;1.20;;
3601;SDS011;1815;50.950;6.920;2023-02-26T00:10:38;3.70;;;1.27;;
3601;SDS011;1815;50.950;6.920;2023-02-26T00:13:04;3.03;;;1.27;;
3601;SDS011;1815;50.950;6.920;2023-02-26T00:15:30;3.35;;;1.23;;
3601;SDS011;1815;50.950;6.920;2023-02-26T00:18:14;6.18;;;1.85;;
3601;SDS011;1815;50.950;6.920;2023-02-26T00:20:40;2.33;;;1.10;;
3601;SDS011;1815;50.950;6.920;2023-02-26T00:23:12;2.20;;;1.15;;
3601;SDS011;1815;50.950;6.920;2023-02-26T00:25:41;2.65;;;1.02;;
3601;SDS011;1815;50.950;6.920;2023-02-26T00:28:07;5.43;;;1.57;;
3601;SDS011;1815;50.950;6.920;2023-02-26T00:30:34;2.67;;;1.17;;
3601;SDS011;1815;50.950;6.920;2023-02-26T00:33:00;2.30;;;1.30;;
3601;SDS011;1815;50.950;6.920;2023-02-26T00:35:26;4.68;;;1.45;;
3601;SDS011;1815;50.950;6.920;2023-02-26T00:38:05;5.07;;;1.25;;
3601;SDS011;1815;50.950;6.920;2023-02-26T00:40:42;2.67;;;1.42;;
3601;SDS011;1815;50.950;6.920;2023-02-26T00:43:16;6.30;;;1.20;;
3601;SDS011;1815;50.950;6.920;2023-02-26T00:45:44;3.50;;;1.67;;
3601;SDS011;1815;50.950;6.920;2023-02-26T00:51:47;3.20;;;1.20;;
3601;SDS011;1815;50.950;6.920;2023-02-26T00:53:58;4.47;;;1.00;;
3601;SDS011;1815;50.950;6.920;2023-02-26T00:56:27;4.65;;;1.17;;
3601;SDS011;1815;50.950;6.920;2023-02-26T00:58:53;2.60;;;1.00;;
3601;SDS011;1815;50.950;6.920;2023-02-26T01:01:18;2.70;;;1.10;;
3601;SDS011;1815;50.950;6.920;2023-02-26T01:03:44;3.37;;;1.27;;
3601;SDS011;1815;50.950;6.920;2023-02-26T01:06:12;2.83;;;1.05;;
3601;SDS011;1815;50.950;6.920;2023-02-26T01:08:51;2.83;;;1.23;;
3601;SDS011;1815;50.950;6.920;2023-02-26T01:11:24;6.45;;;0.90;;
3601;SDS011;1815;50.950;6.920;2023-02-26T01:13:50;3.03;;;1.57;;
3601;SDS011;1815;50.950;6.920;2023-02-26T01:16:19;1.90;;;0.90;;
3601;SDS011;1815;50.950;6.920;2023-02-26T01:18:49;3.25;;;0.90;;
3601;SDS011;1815;50.950;6.920;2023-02-26T01:21:26;1.88;;;0.90;;
3601;SDS011;1815;50.950;6.920;2023-02-26T01:23:57;3.60;;;1.15;;
3601;SDS011;1815;50.950;6.920;2023-02-26T01:26:26;3.80;;;1.00;;
3601;SDS011;1815;50.950;6.920;2023-02-26T01:28:53;2.80;;;0.88;;
3601;SDS011;1815;50.950;6.920;2023-02-26T01:37:26;1.90;;;0.95;;
3601;SDS011;1815;50.950;6.920;2023-02-26T01:40:02;4.03;;;0.90;;
3601;SDS011;1815;50.950;6.920;2023-02-26T01:42:53;4.82;;;1.00;;
3601;SDS011;1815;50.950;6.920;2023-02-26T01:45:34;4.90;;;0.90;;
3601;SDS011;1815;50.950;6.920;2023-02-26T01:48:04;1.45;;;0.68;;
3601;SDS011;1815;50.950;6.920;2023-02-26T01:50:36;5.13;;;1.00;;
3601;SDS011;1815;50.950;6.920;2023-02-26T01:53:14;2.88;;;1.00;;
3601;SDS011;1815;50.950;6.920;2023-02-26T01:55:49;3.05;;;0.90;;
3601;SDS011;1815;50.950;6.920;2023-02-26T01:58:18;4.28;;;1.50;;
3601;SDS011;1815;50.950;6.920;2023-02-26T02:00:46;2.63;;;1.00;;
3601;SDS011;1815;50.950;6.920;2023-02-26T02:03:12;4.27;;;0.90;;
3601;SDS011;1815;50.950;6.920;2023-02-26T02:05:55;2.80;;;1.00;;
3601;SDS011;1815;50.950;6.920;2023-02-26T02:08:27;3.38;;;1.00;;
3601;SDS011;1815;50.950;6.920;2023-02-26T02:10:53;3.85;;;1.02;;
3601;SDS011;1815;50.950;6.920;2023-02-26T02:26:39;3.50;;;0.90;;
3601;SDS011;1815;50.950;6.920;2023-02-26T02:32:14;1.80;;;0.80;;
3601;SDS011;1815;50.950;6.920;2023-02-26T02:34:51;5.15;;;1.13;;
3601;SDS011;1815;50.950;6.920;2023-02-26T02:37:39;2.72;;;0.90;;
3601;SDS011;1815;50.950;6.920;2023-02-26T02:40:12;5.40;;;1.00;;
3601;SDS011;1815;50.950;6.920;2023-02-26T02:42:51;2.10;;;0.80;;
3601;SDS011;1815;50.950;6.920;2023-02-26T02:45:28;4.63;;;1.73;;
3601;SDS011;1815;50.950;6.920;2023-02-26T02:48:04;2.05;;;0.88;;
3601;SDS011;1815;50.950;6.920;2023-02-26T02:50:47;2.22;;;0.88;;
3601;SDS011;1815;50.950;6.920;2023-02-26T02:53:18;7.70;;;1.05;;
3601;SDS011;1815;50.950;6.920;2023-02-26T02:55:50;2.88;;;1.00;;
3601;SDS011;1815;50.950;6.920;2023-02-26T02:58:25;3.00;;;1.10;;
3601;SDS011;1815;50.950;6.920;2023-02-26T03:00:57;3.85;;;0.80;;
3601;SDS011;1815;50.950;6.920;2023-02-26T03:03:29;2.47;;;0.90;;
3601;SDS011;1815;50.950;6.920;2023-02-26T03:05:59;1.65;;;1.00;;
3601;SDS011;1815;50.950;6.920;2023-02-26T03:08:27;1.52;;;0.90;;
3601;SDS011;1815;50.950;6.920;2023-02-26T03:10:58;2.88;;;0.82;;
3601;SDS011;1815;50.950;6.920;2023-02-26T03:13:24;4.18;;;1.10;;
3601;SDS011;1815;50.950;6.920;2023-02-26T03:21:47;2.13;;;1.00;;
3601;SDS011;1815;50.950;6.920;2023-02-26T03:30:02;1.67;;;0.70;;
3601;SDS011;1815;50.950;6.920;2023-02-26T03:36:09;1.55;;;0.85;;
3601;SDS011;1815;50.950;6.920;2023-02-26T03:39:03;3.55;;;0.82;;
3601;SDS011;1815;50.950;6.920;2023-02-26T03:41:44;2.00;;;0.82;;
3601;SDS011;1815;50.950;6.920;2023-02-26T03:44:23;4.88;;;0.90;;
3601;SDS011;1815;50.950;6.920;2023-02-26T03:46:54;2.97;;;1.17;;
3601;SDS011;1815;50.950;6.920;2023-02-26T03:49:26;2.15;;;0.80;;
3601;SDS011;1815;50.950;6.920;2023-02-26T03:51:58;2.55;;;1.05;;
3601;SDS011;1815;50.950;6.920;2023-02-26T03:54:48;1.98;;;0.90;;
3601;SDS011;1815;50.950;6.920;2023-02-26T03:57:54;1.80;;;0.98;;
3601;SDS011;1815;50.950;6.920;2023-02-26T04:00:52;2.88;;;0.82;;
3601;SDS011;1815;50.950;6.920;2023-02-26T04:03:25;2.33;;;0.80;;
3601;SDS011;1815;50.950;6.920;2023-02-26T04:05:57;4.68;;;0.95;;
3601;SDS011;1815;50.950;6.920;2023-02-26T04:08:25;2.47;;;0.90;;
3601;SDS011;1815;50.950;6.920;2023-02-26T04:10:54;3.35;;;1.00;;
3601;SDS011;1815;50.950;6.920;2023-02-26T04:13:24;1.60;;;0.80;;
3601;SDS011;1815;50.950;6.920;2023-02-26T04:15:51;3.40;;;0.80;;
3601;SDS011;1815;50.950;6.920;2023-02-26T04:18:17;1.80;;;0.90;;
3601;SDS011;1815;50.950;6.920;2023-02-26T04:20:43;4.70;;;0.90;;
3601;SDS011;1815;50.950;6.920;2023-02-26T04:23:09;2.28;;;0.80;;
3601;SDS011;1815;50.950;6.920;2023-02-26T04:25:35;3.13;;;1.00;;
3601;SDS011;1815;50.950;6.920;2023-02-26T04:28:02;2.40;;;0.88;;
3601;SDS011;1815;50.950;6.920;2023-02-26T04:30:28;3.15;;;0.88;;
3601;SDS011;1815;50.950;6.920;2023-02-26T04:32:54;3.67;;;0.90;;
3601;SDS011;1815;50.950;6.920;2023-02-26T04:35:20;2.00;;;0.98;;
3601;SDS011;1815;50.950;6.920;2023-02-26T04:37:45;2.23;;;0.90;;
3601;SDS011;1815;50.950;6.920;2023-02-26T04:40:11;3.43;;;1.30;;
3601;SDS011;1815;50.950;6.920;2023-02-26T04:42:37;1.70;;;0.80;;
3601;SDS011;1815;50.950;6.920;2023-02-26T04:45:03;2.23;;;0.90;;
3601;SDS011;1815;50.950;6.920;2023-02-26T04:47:34;3.05;;;0.90;;
3601;SDS011;1815;50.950;6.920;2023-02-26T04:50:01;3.45;;;1.00;;
3601;SDS011;1815;50.950;6.920;2023-02-26T04:52:28;2.75;;;0.80;;
3601;SDS011;1815;50.950;6.920;2023-02-26T04:54:55;3.65;;;1.00;;
3601;SDS011;1815;50.950;6.920;2023-02-26T04:57:21;3.73;;;1.10;;
3601;SDS011;1815;50.950;6.920;2023-02-26T04:59:49;1.92;;;0.85;;
3601;SDS011;1815;50.950;6.920;2023-02-26T05:02:15;2.60;;;1.00;;
3601;SDS011;1815;50.950;6.920;2023-02-26T05:04:44;2.00;;;0.80;;
3601;SDS011;1815;50.950;6.920;2023-02-26T05:07:11;2.03;;;1.00;;
3601;SDS011;1815;50.950;6.920;2023-02-26T05:09:37;3.53;;;0.90;;
3601;SDS011;1815;50.950;6.920;2023-02-26T05:12:02;3.63;;;1.13;;
3601;SDS011;1815;50.950;6.920;2023-02-26T05:14:28;3.78;;;0.80;;
3601;SDS011;1815;50.950;6.920;2023-02-26T05:16:56;2.33;;;0.80;;
3601;SDS011;1815;50.950;6.920;2023-02-26T05:19:22;3.42;;;0.98;;
3601;SDS011;1815;50.950;6.920;2023-02-26T05:21:48;1.40;;;0.70;;
3601;SDS011;1815;50.950;6.920;2023-02-26T05:24:14;1.70;;;1.00;;
3601;SDS011;1815;50.950;6.920;2023-02-26T05:26:40;2.83;;;0.88;;
3601;SDS011;1815;50.950;6.920;2023-02-26T05:29:06;2.50;;;0.80;;
3601;SDS011;1815;50.950;6.920;2023-02-26T05:31:32;2.47;;;0.90;;
3601;SDS011;1815;50.950;6.920;2023-02-26T05:33:57;2.57;;;0.80;;
3601;SDS011;1815;50.950;6.920;2023-02-26T05:36:23;2.43;;;0.80;;
3601;SDS011;1815;50.950;6.920;2023-02-26T05:38:49;3.07;;;0.80;;
3601;SDS011;1815;50.950;6.920;2023-02-26T05:41:15;2.13;;;1.00;;
3601;SDS011;1815;50.950;6.920;2023-02-26T05:43:40;1.70;;;0.83;;
3601;SDS011;1815;50.950;6.920;2023-02-26T05:46:06;2.27;;;0.90;;
3601;SDS011;1815;50.950;6.920;2023-02-26T05:48:32;2.67;;;0.80;;
3601;SDS011;1815;50.950;6.920;2023-02-26T05:50:58;2.80;;;0.77;;
3601;SDS011;1815;50.950;6.920;2023-02-26T05:53:24;5.45;;;1.00;;
3601;SDS011;1815;50.950;6.920;2023-02-26T05:55:51;4.20;;;0.90;;
3601;SDS011;1815;50.950;6.920;2023-02-26T05:58:17;3.55;;;0.93;;
3601;SDS011;1815;50.950;6.920;2023-02-26T06:00:43;2.50;;;0.70;;
3601;SDS011;1815;50.950;6.920;2023-02-26T06:03:09;2.65;;;0.90;;
3601;SDS011;1815;50.950;6.920;2023-02-26T06:05:35;2.92;;;0.70;;
3601;SDS011;1815;50.950;6.920;2023-02-26T06:08:01;3.03;;;1.10;;
3601;SDS011;1815;50.950;6.920;2023-02-26T06:10:29;1.42;;;0.90;;
3601;SDS011;1815;50.950;6.920;2023-02-26T06:12:54;1.70;;;0.80;;
3601;SDS011;1815;50.950;6.920;2023-02-26T06:15:20;4.20;;;0.90;;
3601;SDS011;1815;50.950;6.920;2023-02-26T06:17:46;2.53;;;0.90;;
3601;SDS011;1815;50.950;6.920;2023-02-26T06:20:11;2.80;;;0.97;;
3601;SDS011;1815;50.950;6.920;2023-02-26T06:22:37;3.60;;;0.90;;
3601;SDS011;1815;50.950;6.920;2023-02-26T06:25:03;2.40;;;0.90;;
3601;SDS011;1815;50.950;6.920;2023-02-26T06:27:30;1.60;;;0.80;;
3601;SDS011;1815;50.950;6.920;2023-02-26T06:29:55;1.80;;;0.70;;
3601;SDS011;1815;50.950;6.920;2023-02-26T06:32:21;2.70;;;1.00;;
3601;SDS011;1815;50.950;6.920;2023-02-26T06:34:47;1.60;;;0.80;;
3601;SDS011;1815;50.950;6.920;2023-02-26T06:37:13;2.53;;;1.10;;
3601;SDS011;1815;50.950;6.920;2023-02-26T06:39:38;2.53;;;0.90;;
3601;SDS011;1815;50.950;6.920;2023-02-26T06:42:04;3.03;;;1.10;;
3601;SDS011;1815;50.950;6.920;2023-02-26T06:44:30;3.33;;;1.10;;
3601;SDS011;1815;50.950;6.920;2023-02-26T06:46:56;3.08;;;1.20;;
3601;SDS011;1815;50.950;6.920;2023-02-26T06:49:23;2.10;;;1.00;;
3601;SDS011;1815;50.950;6.920;2023-02-26T06:51:48;2.28;;;0.80;;
3601;SDS011;1815;50.950;6.920;2023-02-26T06:54:15;1.35;;;0.93;;
3601;SDS011;1815;50.950;6.920;2023-02-26T06:56:40;2.23;;;1.10;;
3601;SDS011;1815;50.950;6.920;2023-02-26T06:59:06;2.13;;;1.20;;
3601;SDS011;1815;50.950;6.920;2023-02-26T07:01:32;1.97;;;1.10;;
3601;SDS011;1815;50.950;6.920;2023-02-26T07:03:57;1.80;;;0.80;;
3601;SDS011;1815;50.950;6.920;2023-02-26T07:06:25;3.63;;;0.80;;
3601;SDS011;1815;50.950;6.920;2023-02-26T07:08:51;1.80;;;1.05;;
3601;SDS011;1815;50.950;6.920;2023-02-26T07:11:17;3.53;;;1.40;;
3601;SDS011;1815;50.950;6.920;2023-02-26T07:13:42;2.40;;;0.93;;
3601;SDS011;1815;50.950;6.920;2023-02-26T07:16:08;2.43;;;1.33;;
3601;SDS011;1815;50.950;6.920;2023-02-26T07:18:34;2.80;;;1.20;;
3601;SDS011;1815;50.950;6.920;2023-02-26T07:21:01;3.25;;;1.45;;
3601;SDS011;1815;50.950;6.920;2023-02-26T07:23:28;4.03;;;1.80;;
3601;SDS011;1815;50.950;6.920;2023-02-26T07:25:54;2.40;;;1.10;;
3601;SDS011;1815;50.950;6.920;2023-02-26T07:28:20;3.53;;;1.45;;
3601;SDS011;1815;50.950;6.920;2023-02-26T07:30:46;4.47;;;1.38;;
3601;SDS011;1815;50.950;6.920;2023-02-26T07:33:12;3.00;;;1.60;;
3601;SDS011;1815;50.950;6.920;2023-02-26T07:35:38;2.90;;;1.37;;
3601;SDS011;1815;50.950;6.920;2023-02-26T07:38:04;4.68;;;1.50;;
3601;SDS011;1815;50.950;6.920;2023-02-26T07:40:30;2.58;;;1.70;;
3601;SDS011;1815;50.950;6.920;2023-02-26T07:42:57;2.47;;;2.17;;
3601;SDS011;1815;50.950;6.920;2023-02-26T07:45:22;4.63;;;2.17;;
3601;SDS011;1815;50.950;6.920;2023-02-26T07:47:49;3.40;;;1.37;;
3601;SDS011;1815;50.950;6.920;2023-02-26T07:50:16;3.50;;;1.90;;
3601;SDS011;1815;50.950;6.920;2023-02-26T07:52:43;5.68;;;2.42;;
3601;SDS011;1815;50.950;6.920;2023-02-26T07:55:09;2.77;;;2.07;;
3601;SDS011;1815;50.950;6.920;2023-02-26T07:57:34;3.80;;;1.47;;
3601;SDS011;1815;50.950;6.920;2023-02-26T08:00:00;2.27;;;1.37;;
3601;SDS011;1815;50.950;6.920;2023-02-26T08:02:26;2.58;;;1.30;;
3601;SDS011;1815;50.950;6.920;2023-02-26T08:04:52;2.60;;;1.40;;
3601;SDS011;1815;50.950;6.920;2023-02-26T08:07:18;5.07;;;1.50;;
3601;SDS011;1815;50.950;6.920;2023-02-26T08:09:44;2.90;;;1.60;;
3601;SDS011;1815;50.950;6.920;2023-02-26T08:12:10;4.25;;;1.58;;
3601;SDS011;1815;50.950;6.920;2023-02-26T08:14:36;3.60;;;1.50;;
3601;SDS011;1815;50.950;6.920;2023-02-26T08:17:04;2.35;;;1.20;;
3601;SDS011;1815;50.950;6.920;2023-02-26T08:19:30;3.17;;;1.48;;
3601;SDS011;1815;50.950;6.920;2023-02-26T08:21:56;2.10;;;1.70;;
3601;SDS011;1815;50.950;6.920;2023-02-26T08:24:22;3.20;;;1.47;;
3601;SDS011;1815;50.950;6.920;2023-02-26T08:26:48;2.07;;;1.10;;
3601;SDS011;1815;50.950;6.920;2023-02-26T08:29:13;2.60;;;1.40;;
3601;SDS011;1815;50.950;6.920;2023-02-26T08:31:39;2.43;;;1.33;;
3601;SDS011;1815;50.950;6.920;2023-02-26T08:34:05;2.90;;;1.50;;
3601;SDS011;1815;50.950;6.920;2023-02-26T08:36:31;2.93;;;1.50;;
3601;SDS011;1815;50.950;6.920;2023-02-26T08:38:56;3.80;;;1.30;;
3601;SDS011;1815;50.950;6.920;2023-02-26T08:41:23;2.50;;;1.20;;
3601;SDS011;1815;50.950;6.920;2023-02-26T08:43:51;3.05;;;1.00;;
3601;SDS011;1815;50.950;6.920;2023-02-26T08:46:17;2.10;;;1.07;;
3601;SDS011;1815;50.950;6.920;2023-02-26T08:48:43;3.77;;;1.17;;
3601;SDS011;1815;50.950;6.920;2023-02-26T08:51:09;3.00;;;1.00;;
3601;SDS011;1815;50.950;6.920;2023-02-26T08:53:35;3.17;;;0.90;;
3601;SDS011;1815;50.950;6.920;2023-02-26T08:56:01;2.97;;;1.10;;
3601;SDS011;1815;50.950;6.920;2023-02-26T08:58:27;1.40;;;0.80;;
3601;SDS011;1815;50.950;6.920;2023-02-26T09:00:52;1.83;;;0.73;;
3601;SDS011;1815;50.950;6.920;2023-02-26T09:03:18;2.00;;;0.70;;
3601;SDS011;1815;50.950;6.920;2023-02-26T09:05:44;3.27;;;1.10;;
3601;SDS011;1815;50.950;6.920;2023-02-26T09:08:10;1.87;;;0.77;;
3601;SDS011;1815;50.950;6.920;2023-02-26T09:10:39;2.70;;;0.90;;
3601;SDS011;1815;50.950;6.920;2023-02-26T09:13:05;2.70;;;0.70;;
3601;SDS011;1815;50.950;6.920;2023-02-26T09:15:31;2.90;;;0.80;;
3601;SDS011;1815;50.950;6.920;2023-02-26T09:17:57;2.13;;;0.90;;
3601;SDS011;1815;50.950;6.920;2023-02-26T09:20:23;2.57;;;0.90;;
3601;SDS011;1815;50.950;6.920;2023-02-26T09:22:49;2.17;;;0.93;;
3601;SDS011;1815;50.950;6.920;2023-02-26T09:25:15;2.00;;;0.80;;
3601;SDS011;1815;50.950;6.920;2023-02-26T09:27:41;2.40;;;0.70;;
3601;SDS011;1815;50.950;6.920;2023-02-26T09:30:07;1.80;;;0.80;;
3601;SDS011;1815;50.950;6.920;2023-02-26T09:32:33;1.63;;;0.73;;
3601;SDS011;1815;50.950;6.920;2023-02-26T09:34:59;2.33;;;0.90;;
3601;SDS011;1815;50.950;6.920;2023-02-26T09:37:26;2.53;;;0.97;;
3601;SDS011;1815;50.950;6.920;2023-02-26T09:39:52;1.60;;;0.70;;
3601;SDS011;1815;50.950;6.920;2023-02-26T09:45:29;2.40;;;0.83;;
3601;SDS011;1815;50.950;6.920;2023-02-26T09:48:00;1.90;;;0.70;;
3601;SDS011;1815;50.950;6.920;2023-02-26T09:50:50;1.93;;;0.73;;
3601;SDS011;1815;50.950;6.920;2023-02-26T09:53:20;2.57;;;0.80;;
3601;SDS011;1815;50.950;6.920;2023-02-26T09:55:49;2.90;;;0.60;;
3601;SDS011;1815;50.950;6.920;2023-02-26T09:58:31;3.73;;;0.90;;
3601;SDS011;1815;50.950;6.920;2023-02-26T10:03:57;1.63;;;0.60;;
3601;SDS011;1815;50.950;6.920;2023-02-26T10:06:38;1.77;;;0.70;;
3601;SDS011;1815;50.950;6.920;2023-02-26T10:09:39;2.00;;;0.90;;
3601;SDS011;1815;50.950;6.920;2023-02-26T10:12:20;1.80;;;0.70;;
3601;SDS011;1815;50.950;6.920;2023-02-26T10:14:57;2.77;;;0.60;;
3601;SDS011;1815;50.950;6.920;2023-02-26T10:19:59;2.30;;;0.90;;
3601;SDS011;1815;50.950;6.920;2023-02-26T10:25:16;2.53;;;0.70;;
3601;SDS011;1815;50.950;6.920;2023-02-26T10:30:41;2.30;;;0.60;;
3601;SDS011;1815;50.950;6.920;2023-02-26T10:36:21;1.63;;;0.60;;
3601;SDS011;1815;50.950;6.920;2023-02-26T10:38:48;2.10;;;0.60;;
3601;SDS011;1815;50.950;6.920;2023-02-26T10:41:22;1.73;;;0.60;;
3601;SDS011;1815;50.950;6.920;2023-02-26T10:44:01;2.63;;;0.70;;
3601;SDS011;1815;50.950;6.920;2023-02-26T10:49:50;1.93;;;0.57;;
3601;SDS011;1815;50.950;6.920;2023-02-26T10:52:26;3.63;;;0.70;;
3601;SDS011;1815;50.950;6.920;2023-02-26T10:55:06;2.13;;;0.60;;
3601;SDS011;1815;50.950;6.920;2023-02-26T10:57:43;2.73;;;0.70;;
3601;SDS011;1815;50.950;6.920;2023-02-26T11:00:16;1.50;;;0.53;;
3601;SDS011;1815;50.950;6.920;2023-02-26T11:02:50;1.90;;;0.60;;
3601;SDS011;1815;50.950;6.920;2023-02-26T11:05:25;1.40;;;0.60;;
3601;SDS011;1815;50.950;6.920;2023-02-26T11:07:56;1.40;;;0.70;;
3601;SDS011;1815;50.950;6.920;2023-02-26T11:10:26;1.93;;;0.70;;
3601;SDS011;1815;50.950;6.920;2023-02-26T11:13:02;2.67;;;0.80;;
3601;SDS011;1815;50.950;6.920;2023-02-26T11:15:28;1.65;;;0.60;;
3601;SDS011;1815;50.950;6.920;2023-02-26T11:17:56;2.00;;;0.80;;
3601;SDS011;1815;50.950;6.920;2023-02-26T11:23:06;2.75;;;0.60;;
3601;SDS011;1815;50.950;6.920;2023-02-26T11:25:44;1.50;;;0.63;;
3601;SDS011;1815;50.950;6.920;2023-02-26T11:28:34;4.03;;;0.60;;
3601;SDS011;1815;50.950;6.920;2023-02-26T11:31:04;2.80;;;0.60;;
3601;SDS011;1815;50.950;6.920;2023-02-26T11:33:36;1.58;;;0.50;;
3601;SDS011;1815;50.950;6.920;2023-02-26T11:36:06;2.03;;;0.60;;
3601;SDS011;1815;50.950;6.920;2023-02-26T11:38:36;1.90;;;0.75;;
3601;SDS011;1815;50.950;6.920;2023-02-26T11:41:03;3.23;;;0.70;;
3601;SDS011;1815;50.950;6.920;2023-02-26T11:43:35;2.17;;;0.60;;
3601;SDS011;1815;50.950;6.920;2023-02-26T11:46:06;1.67;;;0.63;;
3601;SDS011;1815;50.950;6.920;2023-02-26T11:51:06;2.05;;;0.60;;
3601;SDS011;1815;50.950;6.920;2023-02-26T11:53:34;2.20;;;0.75;;
3601;SDS011;1815;50.950;6.920;2023-02-26T11:56:03;1.65;;;0.80;;
3601;SDS011;1815;50.950;6.920;2023-02-26T11:58:36;1.58;;;0.70;;
3601;SDS011;1815;50.950;6.920;2023-02-26T12:01:03;2.33;;;0.60;;
3601;SDS011;1815;50.950;6.920;2023-02-26T12:03:33;1.88;;;0.70;;
3601;SDS011;1815;50.950;6.920;2023-02-26T12:06:01;2.10;;;0.73;;
3601;SDS011;1815;50.950;6.920;2023-02-26T12:08:33;2.50;;;0.60;;
3601;SDS011;1815;50.950;6.920;2023-02-26T12:11:09;1.70;;;0.70;;
3601;SDS011;1815;50.950;6.920;2023-02-26T12:28:12;1.63;;;0.70;;
3601;SDS011;1815;50.950;6.920;2023-02-26T12:57:40;2.10;;;0.85;;
3601;SDS011;1815;50.950;6.920;2023-02-26T13:08:16;4.78;;;0.90;;
3601;SDS011;1815;50.950;6.920;2023-02-26T13:10:56;2.35;;;0.90;;
3601;SDS011;1815;50.950;6.920;2023-02-26T13:16:15;1.98;;;0.75;;
3601;SDS011;1815;50.950;6.920;2023-02-26T13:19:05;3.15;;;0.90;;
3601;SDS011;1815;50.950;6.920;2023-02-26T13:21:47;1.80;;;0.80;;
3601;SDS011;1815;50.950;6.920;2023-02-26T13:25:04;2.28;;;0.70;;
3601;SDS011;1815;50.950;6.920;2023-02-26T13:27:18;2.55;;;1.10;;
3601;SDS011;1815;50.950;6.920;2023-02-26T13:29:47;1.75;;;0.82;;
3601;SDS011;1815;50.950;6.920;2023-02-26T13:32:22;1.73;;;1.00;;
3601;SDS011;1815;50.950;6.920;2023-02-26T13:37:28;2.22;;;0.93;;
3601;SDS011;1815;50.950;6.920;2023-02-26T13:40:15;2.10;;;0.70;;
3601;SDS011;1815;50.950;6.920;2023-02-26T13:45:30;2.10;;;1.30;;
3601;SDS011;1815;50.950;6.920;2023-02-26T13:48:24;1.92;;;0.80;;
3601;SDS011;1815;50.950;6.920;2023-02-26T13:53:48;2.10;;;0.90;;
3601;SDS011;1815;50.950;6.920;2023-02-26T13:59:03;1.70;;;1.00;;
3601;SDS011;1815;50.950;6.920;2023-02-26T14:14:32;2.58;;;0.80;;
3601;SDS011;1815;50.950;6.920;2023-02-26T14:19:43;3.15;;;1.10;;
3601;SDS011;1815;50.950;6.920;2023-02-26T14:22:34;2.00;;;0.80;;
3601;SDS011;1815;50.950;6.920;2023-02-26T14:30:46;2.13;;;0.70;;
3601;SDS011;1815;50.950;6.920;2023-02-26T14:33:16;2.80;;;0.80;;
3601;SDS011;1815;50.950;6.920;2023-02-26T14:35:47;1.30;;;0.60;;
3601;SDS011;1815;50.950;6.920;2023-02-26T14:38:33;1.20;;;0.60;;
3601;SDS011;1815;50.950;6.920;2023-02-26T14:41:04;1.45;;;0.60;;
3601;SDS011;1815;50.950;6.920;2023-02-26T14:43:34;3.00;;;0.70;;
3601;SDS011;1815;50.950;6.920;2023-02-26T14:46:09;1.67;;;0.50;;
3601;SDS011;1815;50.950;6.920;2023-02-26T14:48:36;2.25;;;0.70;;
3601;SDS011;1815;50.950;6.920;2023-02-26T14:51:15;1.67;;;0.60;;
3601;SDS011;1815;50.950;6.920;2023-02-26T14:54:07;2.00;;;0.77;;
3601;SDS011;1815;50.950;6.920;2023-02-26T15:02:50;4.32;;;0.70;;
3601;SDS011;1815;50.950;6.920;2023-02-26T15:11:20;1.73;;;0.80;;
3601;SDS011;1815;50.950;6.920;2023-02-26T15:14:05;3.13;;;1.10;;
3601;SDS011;1815;50.950;6.920;2023-02-26T15:24:39;3.72;;;1.92;;
3601;SDS011;1815;50.950;6.920;2023-02-26T15:27:06;2.20;;;1.13;;
3601;SDS011;1815;50.950;6.920;2023-02-26T15:29:39;1.52;;;0.85;;
3601;SDS011;1815;50.950;6.920;2023-02-26T15:32:13;1.75;;;0.70;;
3601;SDS011;1815;50.950;6.920;2023-02-26T15:34:47;1.73;;;0.60;;
3601;SDS011;1815;50.950;6.920;2023-02-26T15:37:20;1.25;;;0.57;;
3601;SDS011;1815;50.950;6.920;2023-02-26T15:39:48;1.60;;;0.80;;
3601;SDS011;1815;50.950;6.920;2023-02-26T15:42:15;4.65;;;0.70;;
3601;SDS011;1815;50.950;6.920;2023-02-26T15:44:42;1.50;;;0.70;;
3601;SDS011;1815;50.950;6.920;2023-02-26T15:47:09;1.52;;;0.63;;
3601;SDS011;1815;50.950;6.920;2023-02-26T15:49:37;1.40;;;0.60;;
3601;SDS011;1815;50.950;6.920;2023-02-26T15:52:06;1.70;;;0.70;;
3601;SDS011;1815;50.950;6.920;2023-02-26T15:54:43;1.67;;;0.70;;
3601;SDS011;1815;50.950;6.920;2023-02-26T15:57:12;1.48;;;0.60;;
3601;SDS011;1815;50.950;6.920;2023-02-26T15:59:41;1.70;;;0.70;;
3601;SDS011;1815;50.950;6.920;2023-02-26T16:02:11;1.20;;;0.57;;
3601;SDS011;1815;50.950;6.920;2023-02-26T16:04:39;1.85;;;0.82;;
3601;SDS011;1815;50.950;6.920;2023-02-26T16:07:08;1.67;;;0.70;;
3601;SDS011;1815;50.950;6.920;2023-02-26T16:09:38;1.50;;;0.60;;
3601;SDS011;1815;50.950;6.920;2023-02-26T16:12:06;1.70;;;0.57;;
3601;SDS011;1815;50.950;6.920;2023-02-26T16:14:37;1.95;;;0.60;;
3601;SDS011;1815;50.950;6.920;2023-02-26T16:17:05;1.30;;;0.68;;
3601;SDS011;1815;50.950;6.920;2023-02-26T16:22:15;1.50;;;0.60;;
3601;SDS011;1815;50.950;6.920;2023-02-26T16:24:59;1.63;;;0.70;;
3601;SDS011;1815;50.950;6.920;2023-02-26T16:27:42;1.80;;;0.70;;
3601;SDS011;1815;50.950;6.920;2023-02-26T16:30:13;2.08;;;0.60;;
3601;SDS011;1815;50.950;6.920;2023-02-26T16:32:43;1.95;;;0.70;;
3601;SDS011;1815;50.950;6.920;2023-02-26T16:35:10;2.83;;;0.60;;
3601;SDS011;1815;50.950;6.920;2023-02-26T16:37:42;2.67;;;0.70;;
3601;SDS011;1815;50.950;6.920;2023-02-26T16:40:20;2.78;;;0.70;;
3601;SDS011;1815;50.950;6.920;2023-02-26T16:43:00;1.55;;;0.63;;
3601;SDS011;1815;50.950;6.920;2023-02-26T16:45:50;1.50;;;0.80;;
3601;SDS011;1815;50.950;6.920;2023-02-26T16:50:59;1.55;;;0.70;;
3601;SDS011;1815;50.950;6.920;2023-02-26T16:53:43;1.63;;;0.70;;
3601;SDS011;1815;50.950;6.920;2023-02-26T16:56:21;1.38;;;0.60;;
3601;SDS011;1815;50.950;6.920;2023-02-26T16:59:10;1.40;;;0.70;;
3601;SDS011;1815;50.950;6.920;2023-02-26T17:01:52;1.63;;;0.60;;
3601;SDS011;1815;50.950;6.920;2023-02-26T17:04:27;2.67;;;0.82;;
3601;SDS011;1815;50.950;6.920;2023-02-26T17:06:56;1.50;;;0.60;;
3601;SDS011;1815;50.950;6.920;2023-02-26T17:09:36;2.38;;;0.70;;
3601;SDS011;1815;50.950;6.920;2023-02-26T17:14:51;1.75;;;0.90;;
3601;SDS011;1815;50.950;6.920;2023-02-26T17:17:20;2.70;;;0.90;;
3601;SDS011;1815;50.950;6.920;2023-02-26T17:19:45;2.13;;;0.83;;
3601;SDS011;1815;50.950;6.920;2023-02-26T17:22:13;3.53;;;0.83;;
3601;SDS011;1815;50.950;6.920;2023-02-26T17:24:41;1.92;;;0.90;;
3601;SDS011;1815;50.950;6.920;2023-02-26T17:27:12;1.40;;;0.68;;
3601;SDS011;1815;50.950;6.920;2023-02-26T17:29:42;2.80;;;1.00;;
3601;SDS011;1815;50.950;6.920;2023-02-26T17:32:21;2.47;;;0.60;;
3601;SDS011;1815;50.950;6.920;2023-02-26T17:34:49;1.60;;;0.70;;
3601;SDS011;1815;50.950;6.920;2023-02-26T17:37:15;4.13;;;0.80;;
3601;SDS011;1815;50.950;6.920;2023-02-26T17:39:41;2.23;;;0.87;;
3601;SDS011;1815;50.950;6.920;2023-02-26T17:42:09;2.00;;;0.75;;
3601;SDS011;1815;50.950;6.920;2023-02-26T17:44:36;3.00;;;0.80;;
3601;SDS011;1815;50.950;6.920;2023-02-26T17:47:01;1.30;;;0.70;;
3601;SDS011;1815;50.950;6.920;2023-02-26T17:49:27;2.57;;;0.80;;
3601;SDS011;1815;50.950;6.920;2023-02-26T17:51:53;2.37;;;0.70;;
3601;SDS011;1815;50.950;6.920;2023-02-26T17:54:18;1.50;;;0.63;;
3601;SDS011;1815;50.950;6.920;2023-02-26T17:56:44;2.07;;;0.80;;
3601;SDS011;1815;50.950;6.920;2023-02-26T17:59:10;1.60;;;0.70;;
3601;SDS011;1815;50.950;6.920;2023-02-26T18:01:37;1.40;;;0.88;;
3601;SDS011;1815;50.950;6.920;2023-02-26T18:04:03;2.35;;;0.80;;
3601;SDS011;1815;50.950;6.920;2023-02-26T18:06:32;3.22;;;1.00;;
3601;SDS011;1815;50.950;6.920;2023-02-26T18:08:59;2.47;;;0.95;;
3601;SDS011;1815;50.950;6.920;2023-02-26T18:11:26;2.90;;;1.17;;
3601;SDS011;1815;50.950;6.920;2023-02-26T18:13:52;2.80;;;1.10;;
3601;SDS011;1815;50.950;6.920;2023-02-26T18:16:20;1.95;;;0.88;;
3601;SDS011;1815;50.950;6.920;2023-02-26T18:18:57;2.10;;;1.10;;
3601;SDS011;1815;50.950;6.920;2023-02-26T18:21:24;1.90;;;1.00;;
3601;SDS011;1815;50.950;6.920;2023-02-26T18:23:51;2.15;;;1.00;;
3601;SDS011;1815;50.950;6.920;2023-02-26T18:26:17;2.15;;;1.10;;
3601;SDS011;1815;50.950;6.920;2023-02-26T18:28:47;2.65;;;1.30;;
3601;SDS011;1815;50.950;6.920;2023-02-26T18:31:14;3.63;;;1.33;;
3601;SDS011;1815;50.950;6.920;2023-02-26T18:33:39;2.10;;;1.10;;